createdAt,value
2022-11-07T00:01:36.018Z,98613.22
2022-11-07T00:04:03.098Z,98617.53
2022-11-07T00:06:30.080Z,98623.25
2022-11-07T00:08:59.144Z,98619.13
2022-11-07T00:11:25.970Z,98623.78
2022-11-07T00:13:52.799Z,98625.38
2022-11-07T00:16:19.914Z,98612.84
2022-11-07T00:18:46.709Z,98622.25
2022-11-07T00:21:13.902Z,98624.97
2022-11-07T00:23:42.183Z,98634.41
2022-11-07T00:26:12.972Z,98634.91
2022-11-07T00:28:42.803Z,98637.81
2022-11-07T00:31:12.686Z,98637.53
2022-11-07T00:33:39.997Z,98649.47
2022-11-07T00:36:08.757Z,98645.66
2022-11-07T00:38:36.182Z,98655.19
2022-11-07T00:41:07.265Z,98660.00
2022-11-07T00:43:34.623Z,98661.84
2022-11-07T00:46:08.009Z,98646.41
2022-11-07T00:48:36.628Z,98648.78
2022-11-07T00:51:13.467Z,98646.91
2022-11-07T00:53:41.024Z,98647.41
2022-11-07T00:56:11.841Z,98650.13
2022-11-07T00:58:39.272Z,98656.53
2022-11-07T01:01:19.981Z,98656.22
2022-11-07T01:04:06.409Z,98663.75
2022-11-07T01:06:37.445Z,98652.31
2022-11-07T01:09:11.688Z,98661.25
2022-11-07T01:11:40.462Z,98663.97
2022-11-07T01:14:09.151Z,98659.66
2022-11-07T01:16:38.837Z,98672.59
2022-11-07T01:19:06.966Z,98667.69
2022-11-07T01:21:34.677Z,98668.97
2022-11-07T01:24:03.571Z,98667.69
2022-11-07T01:26:30.448Z,98653.03
2022-11-07T01:28:57.368Z,98656.53
2022-11-07T01:31:24.199Z,98654.94
2022-11-07T01:33:51.230Z,98659.84
2022-11-07T01:36:19.227Z,98661.16
2022-11-07T01:38:50.812Z,98655.44
2022-11-07T01:41:25.541Z,98651.63
2022-11-07T01:44:02.885Z,98652.44
2022-11-07T01:46:40.418Z,98652.94
2022-11-07T01:49:29.259Z,98659.38
2022-11-07T01:52:04.553Z,98657.66
2022-11-07T01:54:37.885Z,98655.44
2022-11-07T01:57:15.578Z,98658.34
2022-11-07T01:59:42.701Z,98653.44
2022-11-07T02:02:10.158Z,98656.66
2022-11-07T02:04:37.803Z,98655.06
2022-11-07T02:07:18.457Z,98655.06
2022-11-07T02:09:46.007Z,98655.06
2022-11-07T02:12:14.289Z,98656.13
2022-11-07T02:14:43.656Z,98652.34
2022-11-07T02:17:13.304Z,98654.53
2022-11-07T02:19:54.040Z,98656.13
2022-11-07T02:22:53.758Z,98651.53
2022-11-07T02:25:21.625Z,98646.09
2022-11-07T02:27:56.382Z,98648.81
2022-11-07T02:30:28.486Z,98646.41
2022-11-07T02:32:55.433Z,98648.59
2022-11-07T02:35:42.694Z,98648.09
2022-11-07T02:38:17.333Z,98649.44
2022-11-07T02:40:49.684Z,98653.44
2022-11-07T02:43:21.958Z,98645.53
2022-11-07T02:45:50.783Z,98641.41
2022-11-07T02:48:18.346Z,98642.22
2022-11-07T02:50:45.605Z,98644.63
2022-11-07T02:53:13.369Z,98646.22
2022-11-07T02:55:40.378Z,98648.66
2022-11-07T02:58:07.402Z,98649.66
2022-11-07T03:00:34.198Z,98649.66
2022-11-07T03:03:00.963Z,98646.63
2022-11-07T03:05:28.089Z,98651.25
2022-11-07T03:07:54.936Z,98656.47
2022-11-07T03:10:21.834Z,98653.25
2022-11-07T03:12:48.602Z,98658.38
2022-11-07T03:15:15.489Z,98655.97
2022-11-07T03:17:42.742Z,98659.19
2022-11-07T03:20:10.865Z,98656.97
2022-11-07T03:22:38.233Z,98650.44
2022-11-07T03:25:07.215Z,98661.00
2022-11-07T03:27:34.144Z,98661.78
2022-11-07T03:30:00.937Z,98662.28
2022-11-07T03:32:27.727Z,98663.88
2022-11-07T03:34:54.543Z,98663.59
2022-11-07T03:37:21.306Z,98666.31
2022-11-07T03:39:48.079Z,98673.34
2022-11-07T03:42:14.812Z,98667.13
2022-11-07T03:44:41.638Z,98678.56
2022-11-07T03:47:09.922Z,98679.97
2022-11-07T03:49:36.672Z,98677.78
2022-11-07T03:52:03.723Z,98683.97
2022-11-07T03:54:30.542Z,98680.16
2022-11-07T03:56:57.294Z,98681.59
2022-11-07T03:59:24.100Z,98688.91
2022-11-07T04:01:51.088Z,98690.22
2022-11-07T04:04:18.052Z,98684.81
2022-11-07T04:06:44.808Z,98683.41
2022-11-07T04:09:11.660Z,98692.34
2022-11-07T04:11:56.821Z,98694.25
2022-11-07T04:14:42.124Z,98698.88
2022-11-07T04:17:20.302Z,98705.09
2022-11-07T04:19:57.016Z,98698.25
2022-11-07T04:22:25.700Z,98701.19
2022-11-07T04:24:53.047Z,98708.72
2022-11-07T04:27:39.183Z,98711.13
2022-11-07T04:30:19.687Z,98714.66
2022-11-07T04:32:55.808Z,98711.94
2022-11-07T04:35:26.878Z,98707.28
2022-11-07T04:37:54.094Z,98708.09
2022-11-07T04:40:22.097Z,98713.53
2022-11-07T04:42:50.142Z,98715.16
2022-11-07T04:45:17.944Z,98716.75
2022-11-07T04:47:44.813Z,98721.06
2022-11-07T04:50:15.240Z,98721.06
2022-11-07T04:52:42.702Z,98713.72
2022-11-07T04:55:21.290Z,98724.28
2022-11-07T04:57:48.512Z,98721.06
2022-11-07T05:00:18.044Z,98724.56
2022-11-07T05:02:45.619Z,98718.97
2022-11-07T05:05:12.946Z,98720.84
2022-11-07T05:07:40.154Z,98719.56
2022-11-07T05:10:12.374Z,98726.09
2022-11-07T05:12:39.216Z,98720.34
2022-11-07T05:15:06.650Z,98713.53
2022-11-07T05:17:33.389Z,98719.75
2022-11-07T05:20:00.134Z,98721.34
2022-11-07T05:22:45.318Z,98723.56
2022-11-07T05:25:12.144Z,98724.38
2022-11-07T05:27:39.074Z,98719.25
2022-11-07T05:30:09.998Z,98723.06
2022-11-07T05:32:38.153Z,98719.56
2022-11-07T05:35:05.897Z,98720.16
2022-11-07T05:37:32.941Z,98730.03
2022-11-07T05:39:59.693Z,98728.97
2022-11-07T05:42:26.477Z,98735.00
2022-11-07T05:44:53.247Z,98734.72
2022-11-07T05:47:20.046Z,98733.34
2022-11-07T05:49:47.125Z,98732.81
2022-11-07T05:52:13.900Z,98732.81
2022-11-07T05:54:41.344Z,98729.91
2022-11-07T05:57:08.393Z,98731.28
2022-11-07T05:59:35.259Z,98730.78
2022-11-07T06:02:02.220Z,98734.59
2022-11-07T06:04:29.231Z,98725.38
2022-11-07T06:06:55.991Z,98734.81
2022-11-07T06:09:25.811Z,98736.44
2022-11-07T06:11:52.700Z,98755.09
2022-11-07T06:14:19.506Z,98741.84
2022-11-07T06:16:46.337Z,98739.66
2022-11-07T06:19:13.083Z,98741.25
2022-11-07T06:21:39.861Z,98745.84
2022-11-07T06:24:11.017Z,98751.88
2022-11-07T06:26:40.781Z,98750.88
2022-11-07T06:29:07.556Z,98750.88
2022-11-07T06:31:34.552Z,98747.66
2022-11-07T06:34:01.302Z,98755.28
2022-11-07T06:36:28.099Z,98753.69
2022-11-07T06:38:55.499Z,98755.59
2022-11-07T06:41:22.431Z,98756.72
2022-11-07T06:43:53.271Z,98755.28
2022-11-07T06:46:22.601Z,98752.28
2022-11-07T06:48:49.604Z,98764.75
2022-11-07T06:51:16.879Z,98754.19
2022-11-07T06:53:43.759Z,98764.44
2022-11-07T06:56:15.795Z,98767.97
2022-11-07T06:58:42.757Z,98768.97
2022-11-07T07:01:15.490Z,98774.41
2022-11-07T07:03:43.593Z,98782.22
2022-11-07T07:06:15.762Z,98783.84
2022-11-07T07:08:44.120Z,98782.16
2022-11-07T07:11:14.705Z,98783.75
2022-11-07T07:13:41.889Z,98781.84
2022-11-07T07:16:09.825Z,98792.41
2022-11-07T07:18:36.726Z,98789.97
2022-11-07T07:21:13.713Z,98786.97
2022-11-07T07:23:41.232Z,98788.88
2022-11-07T07:26:14.224Z,98788.59
2022-11-07T07:28:41.523Z,98791.31
2022-11-07T07:31:28.733Z,98792.91
2022-11-07T07:33:55.582Z,98792.31
2022-11-07T07:36:22.440Z,98793.31
2022-11-07T07:38:51.112Z,98794.94
2022-11-07T07:41:18.966Z,98796.72
2022-11-07T07:43:46.241Z,98799.16
2022-11-07T07:46:22.326Z,98793.50
2022-11-07T07:48:49.403Z,98790.00
2022-11-07T07:51:16.241Z,98798.94
2022-11-07T07:53:43.054Z,98795.84
2022-11-07T07:56:10.000Z,98790.19
2022-11-07T07:58:36.983Z,98792.31
2022-11-07T08:01:10.108Z,98787.38
2022-11-07T08:03:59.681Z,98796.53
2022-11-07T08:06:25.439Z,98791.00
2022-11-07T08:08:52.679Z,98799.03
2022-11-07T08:11:19.452Z,98794.91
2022-11-07T08:13:46.237Z,98792.41
2022-11-07T08:16:22.193Z,98799.31
2022-11-07T08:18:48.917Z,98800.31
2022-11-07T08:21:15.791Z,98802.94
2022-11-07T08:23:42.566Z,98803.44
2022-11-07T08:26:09.376Z,98804.94
2022-11-07T08:28:36.461Z,98799.09
2022-11-07T08:31:08.492Z,98801.09
2022-11-07T08:33:36.402Z,98804.97
2022-11-07T08:36:05.146Z,98799.63
2022-11-07T08:38:34.670Z,98797.94
2022-11-07T08:41:01.905Z,98797.94
2022-11-07T08:43:29.175Z,98797.56
2022-11-07T08:45:56.613Z,98792.41
2022-11-07T08:48:24.123Z,98796.84
2022-11-07T08:50:56.638Z,98805.41
2022-11-07T08:53:26.252Z,98806.53
2022-11-07T08:55:59.798Z,98809.47
2022-11-07T08:58:30.027Z,98812.88
2022-11-07T09:00:57.671Z,98811.56
2022-11-07T09:03:44.364Z,98814.00
2022-11-07T09:06:11.810Z,98813.16
2022-11-07T09:08:38.772Z,98814.28
2022-11-07T09:11:06.212Z,98817.00
2022-11-07T09:13:34.599Z,98829.84
2022-11-07T09:16:04.539Z,98823.44
2022-11-07T09:18:32.806Z,98826.50
2022-11-07T09:21:00.419Z,98822.84
2022-11-07T09:23:27.715Z,98831.66
2022-11-07T09:25:54.825Z,98826.56
2022-11-07T09:28:22.070Z,98827.38
2022-11-07T09:30:54.471Z,98828.34
2022-11-07T09:33:22.515Z,98826.59
2022-11-07T09:35:50.444Z,98821.47
2022-11-07T09:38:17.521Z,98820.50
2022-11-07T09:40:49.954Z,98814.75
2022-11-07T09:43:49.094Z,98822.91
2022-11-07T09:46:59.501Z,98819.75
2022-11-07T09:49:35.108Z,98814.31
2022-11-07T09:52:42.160Z,98825.84
2022-11-07T09:55:27.377Z,98820.72
2022-11-07T09:58:01.357Z,98819.16
2022-11-07T10:00:32.172Z,98816.09
2022-11-07T10:03:01.951Z,98819.47
2022-11-07T10:06:16.661Z,98823.81
2022-11-07T10:09:22.166Z,98811.59
2022-11-07T10:12:09.792Z,98816.53
2022-11-07T10:15:09.550Z,98809.31
2022-11-07T10:17:45.597Z,98815.69
2022-11-07T10:21:30.495Z,98812.75
2022-11-07T10:24:11.966Z,98814.06
2022-11-07T10:26:44.710Z,98810.47
2022-11-07T10:29:19.261Z,98805.38
2022-11-07T10:32:15.283Z,98801.84
2022-11-07T10:34:54.152Z,98810.84
2022-11-07T10:37:22.071Z,98800.53
2022-11-07T10:39:49.051Z,98798.47
2022-11-07T10:42:25.604Z,98797.91
2022-11-07T10:44:55.688Z,98803.38
2022-11-07T10:47:27.644Z,98796.59
2022-11-07T10:50:16.420Z,98804.34
2022-11-07T10:52:58.042Z,98804.59
2022-11-07T10:55:26.962Z,98800.19
2022-11-07T10:58:06.814Z,98794.97
2022-11-07T11:00:39.525Z,98808.44
2022-11-07T11:03:17.154Z,98805.47
2022-11-07T11:05:48.981Z,98806.63
2022-11-07T11:08:21.247Z,98809.56
2022-11-07T11:10:49.932Z,98803.69
2022-11-07T11:13:32.241Z,98806.44
2022-11-07T11:16:21.206Z,98813.75
2022-11-07T11:19:01.090Z,98818.06
2022-11-07T11:21:41.730Z,98817.94
2022-11-07T11:24:30.107Z,98817.94
2022-11-07T11:27:23.195Z,98817.16
2022-11-07T11:30:17.284Z,98805.41
2022-11-07T11:33:16.507Z,98812.00
2022-11-07T11:35:49.319Z,98806.72
2022-11-07T11:38:37.471Z,98810.06
2022-11-07T11:41:17.430Z,98795.22
2022-11-07T11:43:57.558Z,98795.84
2022-11-07T11:46:40.353Z,98790.91
2022-11-07T11:49:21.674Z,98796.22
2022-11-07T11:51:53.496Z,98787.22
2022-11-07T11:54:20.410Z,98782.53
2022-11-07T11:57:04.380Z,98775.69
2022-11-07T11:59:43.049Z,98781.19
2022-11-07T12:02:31.594Z,98780.56
2022-11-07T12:05:47.709Z,98782.38
2022-11-07T12:08:31.336Z,98789.41
2022-11-07T12:11:37.998Z,98776.22
2022-11-07T12:14:31.682Z,98779.72
2022-11-07T12:17:27.948Z,98780.88
2022-11-07T12:20:12.768Z,98784.16
2022-11-07T12:22:59.759Z,98776.00
2022-11-07T12:25:33.144Z,98768.28
2022-11-07T12:28:27.186Z,98768.13
2022-11-07T12:31:25.501Z,98766.78
2022-11-07T12:34:38.851Z,98763.34
2022-11-07T12:37:41.320Z,98769.72
2022-11-07T12:40:49.812Z,98774.59
2022-11-07T12:43:40.784Z,98772.69
2022-11-07T12:46:28.591Z,98771.03
2022-11-07T12:49:39.287Z,98773.75
2022-11-07T12:52:42.999Z,98776.00
2022-11-07T12:55:42.648Z,98778.72
2022-11-07T12:58:36.692Z,98779.66
2022-11-07T13:01:05.601Z,98771.22
2022-11-07T13:04:07.397Z,98764.81
2022-11-07T13:06:49.931Z,98770.09
2022-11-07T13:09:53.106Z,98766.22
2022-11-07T13:12:40.428Z,98759.19
2022-11-07T13:15:12.738Z,98759.63
2022-11-07T13:17:46.725Z,98762.72
2022-11-07T13:20:27.359Z,98764.84
2022-11-07T13:23:00.813Z,98770.72
2022-11-07T13:25:33.536Z,98756.75
2022-11-07T13:28:07.050Z,98760.38
2022-11-07T13:30:39.111Z,98760.59
2022-11-07T13:33:23.899Z,98752.44
2022-11-07T13:35:59.334Z,98745.03
2022-11-07T13:38:29.627Z,98751.31
2022-11-07T13:41:03.820Z,98746.16
2022-11-07T13:44:02.226Z,98743.34
2022-11-07T13:46:56.626Z,98745.63
2022-11-07T13:49:47.691Z,98752.56
2022-11-07T13:53:02.814Z,98752.44
2022-11-07T13:55:44.097Z,98750.16
2022-11-07T13:58:16.731Z,98752.91
2022-11-07T14:00:43.599Z,98754.03
2022-11-07T14:03:29.383Z,98749.22
2022-11-07T14:05:57.136Z,98755.91
2022-11-07T14:08:47.085Z,98751.63
2022-11-07T14:11:23.016Z,98759.72
2022-11-07T14:13:54.114Z,98759.09
2022-11-07T14:16:25.700Z,98757.84
2022-11-07T14:19:03.378Z,98765.44
2022-11-07T14:21:35.822Z,98762.25
2022-11-07T14:24:19.915Z,98766.78
2022-11-07T14:27:06.260Z,98768.28
2022-11-07T14:29:33.876Z,98763.47
2022-11-07T14:32:04.913Z,98772.97
2022-11-07T14:34:36.322Z,98767.84
2022-11-07T14:37:08.749Z,98767.03
2022-11-07T14:39:36.162Z,98764.31
2022-11-07T14:42:03.843Z,98767.03
2022-11-07T14:44:58.511Z,98771.88
2022-11-07T14:47:33.202Z,98763.28
2022-11-07T14:50:02.028Z,98779.38
2022-11-07T14:52:52.347Z,98772.97
2022-11-07T14:55:30.793Z,98776.31
2022-11-07T14:58:06.230Z,98779.72
2022-11-07T15:00:36.654Z,98782.28
2022-11-07T15:03:04.521Z,98779.06
2022-11-07T15:05:45.084Z,98776.53
2022-11-07T15:08:36.062Z,98774.75
2022-11-07T15:11:20.326Z,98777.00
2022-11-07T15:13:50.383Z,98779.25
2022-11-07T15:16:21.912Z,98787.78
2022-11-07T15:19:01.626Z,98777.34
2022-11-07T15:21:52.356Z,98782.81
2022-11-07T15:24:41.397Z,98781.69
2022-11-07T15:27:14.293Z,98781.03
2022-11-07T15:29:51.371Z,98775.28
2022-11-07T15:32:22.065Z,98786.66
2022-11-07T15:35:07.840Z,98778.78
2022-11-07T15:37:40.643Z,98775.44
2022-11-07T15:40:18.598Z,98772.72
2022-11-07T15:42:45.417Z,98780.59
2022-11-07T15:45:14.213Z,98778.06
2022-11-07T15:47:41.379Z,98779.34
2022-11-07T15:50:24.581Z,98773.75
2022-11-07T15:52:53.864Z,98769.41
2022-11-07T15:55:23.055Z,98773.91
2022-11-07T15:57:53.105Z,98767.34
2022-11-07T16:00:25.021Z,98766.84
2022-11-07T16:02:52.798Z,98763.66
2022-11-07T16:05:19.749Z,98763.81
2022-11-07T16:07:47.088Z,98772.31
2022-11-07T16:10:22.337Z,98769.09
2022-11-07T16:12:50.579Z,98766.88
2022-11-07T16:15:23.420Z,98755.66
2022-11-07T16:17:50.730Z,98758.00
2022-11-07T16:20:22.929Z,98767.44
2022-11-07T16:22:50.867Z,98770.13
2022-11-07T16:25:23.502Z,98764.84
2022-11-07T16:27:55.580Z,98777.00
2022-11-07T16:30:23.170Z,98773.47
2022-11-07T16:32:50.027Z,98773.31
2022-11-07T16:35:17.294Z,98776.50
2022-11-07T16:37:44.220Z,98776.47
2022-11-07T16:40:17.848Z,98781.25
2022-11-07T16:42:45.648Z,98784.63
2022-11-07T16:45:22.304Z,98780.28
2022-11-07T16:47:49.161Z,98779.59
2022-11-07T16:50:17.823Z,98780.06
2022-11-07T16:52:44.721Z,98779.69
2022-11-07T16:55:17.116Z,98784.97
2022-11-07T16:57:43.999Z,98783.22
2022-11-07T17:00:23.538Z,98781.13
2022-11-07T17:02:50.851Z,98782.38
2022-11-07T17:05:18.495Z,98783.63
2022-11-07T17:07:45.262Z,98782.03
2022-11-07T17:10:20.252Z,98783.63
2022-11-07T17:12:46.994Z,98789.06
2022-11-07T17:15:13.778Z,98788.59
2022-11-07T17:17:40.886Z,98791.44
2022-11-07T17:20:41.124Z,98789.63
2022-11-07T17:23:07.319Z,98787.75
2022-11-07T17:25:34.448Z,98795.06
2022-11-07T17:28:01.206Z,98794.91
2022-11-07T17:30:29.254Z,98794.41
2022-11-07T17:32:56.029Z,98799.03
2022-11-07T17:35:38.237Z,98794.91
2022-11-07T17:38:05.874Z,98806.56
2022-11-07T17:40:34.525Z,98799.03
2022-11-07T17:43:01.698Z,98799.84
2022-11-07T17:45:28.900Z,98802.25
2022-11-07T17:47:55.764Z,98797.63
2022-11-07T17:50:23.497Z,98801.13
2022-11-07T17:52:52.194Z,98802.75
2022-11-07T17:55:20.078Z,98796.53
2022-11-07T17:57:46.969Z,98803.38
2022-11-07T18:00:24.322Z,98799.84
2022-11-07T18:02:52.915Z,98801.13
2022-11-07T18:05:22.490Z,98801.75
2022-11-07T18:07:49.279Z,98796.66
2022-11-07T18:10:17.192Z,98789.59
2022-11-07T18:12:44.226Z,98788.50
2022-11-07T18:15:12.686Z,98786.38
2022-11-07T18:17:41.175Z,98785.28
2022-11-07T18:20:10.240Z,98793.44
2022-11-07T18:22:37.680Z,98792.81
2022-11-07T18:25:06.887Z,98794.91
2022-11-07T18:27:34.166Z,98792.69
2022-11-07T18:30:02.847Z,98788.34
2022-11-07T18:32:35.797Z,98798.75
2022-11-07T18:35:05.870Z,98791.22
2022-11-07T18:37:32.747Z,98787.50
2022-11-07T18:39:59.524Z,98792.63
2022-11-07T18:42:26.390Z,98789.72
2022-11-07T18:44:53.261Z,98793.44
2022-11-07T18:47:20.030Z,98792.00
2022-11-07T18:49:46.825Z,98782.56
2022-11-07T18:52:13.617Z,98780.47
2022-11-07T18:54:40.628Z,98776.44
2022-11-07T18:57:07.488Z,98778.97
2022-11-07T18:59:34.682Z,98785.03
2022-11-07T19:02:01.620Z,98789.97
2022-11-07T19:04:28.664Z,98781.94
2022-11-07T19:06:56.905Z,98781.84
2022-11-07T19:09:30.690Z,98784.69
2022-11-07T19:11:59.667Z,98784.31
2022-11-07T19:14:28.308Z,98784.09
2022-11-07T19:16:55.630Z,98782.00
2022-11-07T19:19:23.137Z,98786.94
2022-11-07T19:21:50.267Z,98793.19
2022-11-07T19:24:17.058Z,98782.13
2022-11-07T19:26:44.149Z,98789.28
2022-11-07T19:29:11.120Z,98780.75
2022-11-07T19:31:38.386Z,98789.75
2022-11-07T19:34:06.211Z,98789.66
2022-11-07T19:36:33.333Z,98791.88
2022-11-07T19:39:02.798Z,98794.00
2022-11-07T19:41:32.403Z,98793.28
2022-11-07T19:44:04.776Z,98795.72
2022-11-07T19:46:32.890Z,98793.09
2022-11-07T19:49:01.371Z,98793.41
2022-11-07T19:51:28.570Z,98793.72
2022-11-07T19:53:59.186Z,98805.69
2022-11-07T19:56:30.624Z,98799.16
2022-11-07T19:59:01.079Z,98805.88
2022-11-07T20:01:32.086Z,98809.06
2022-11-07T20:04:01.017Z,98799.53
2022-11-07T20:06:35.311Z,98806.56
2022-11-07T20:09:06.158Z,98798.94
2022-11-07T20:11:33.580Z,98801.75
2022-11-07T20:14:03.728Z,98792.41
2022-11-07T20:16:33.005Z,98793.03
2022-11-07T20:19:01.703Z,98790.91
2022-11-07T20:21:29.322Z,98795.22
2022-11-07T20:23:59.340Z,98796.34
2022-11-07T20:26:29.399Z,98787.09
2022-11-07T20:28:56.483Z,98799.34
2022-11-07T20:31:28.844Z,98800.34
2022-11-07T20:34:00.042Z,98797.13
2022-11-07T20:36:27.881Z,98791.09
2022-11-07T20:38:55.787Z,98793.81
2022-11-07T20:41:23.712Z,98794.63
2022-11-07T20:44:01.922Z,98796.47
2022-11-07T20:46:30.835Z,98799.69
2022-11-07T20:49:07.156Z,98806.13
2022-11-07T20:51:34.533Z,98806.44
2022-11-07T20:54:02.322Z,98802.63
2022-11-07T20:56:30.025Z,98801.91
2022-11-07T20:58:58.160Z,98806.69
2022-11-07T21:01:37.302Z,98806.47
2022-11-07T21:04:15.294Z,98807.47
2022-11-07T21:06:42.852Z,98803.91
2022-11-07T21:09:10.647Z,98801.47
2022-11-07T21:11:37.593Z,98807.06
2022-11-07T21:14:05.332Z,98800.41
2022-11-07T21:16:36.345Z,98804.50
2022-11-07T21:19:05.289Z,98811.78
2022-11-07T21:21:33.595Z,98808.25
2022-11-07T21:24:01.187Z,98812.06
2022-11-07T21:26:31.757Z,98803.00
2022-11-07T21:29:00.365Z,98808.72
2022-11-07T21:31:31.181Z,98807.97
2022-11-07T21:33:58.309Z,98805.66
2022-11-07T21:36:29.408Z,98799.44
2022-11-07T21:38:59.662Z,98802.22
2022-11-07T21:41:27.698Z,98798.19
2022-11-07T21:43:54.630Z,98797.06
2022-11-07T21:46:34.227Z,98792.41
2022-11-07T21:49:01.556Z,98794.50
2022-11-07T21:51:31.813Z,98788.31
2022-11-07T21:54:00.351Z,98782.06
2022-11-07T21:56:31.155Z,98784.28
2022-11-07T21:59:04.374Z,98769.03
2022-11-07T22:01:35.318Z,98773.75
2022-11-07T22:04:07.431Z,98766.75
2022-11-07T22:06:39.702Z,98758.63
2022-11-07T22:09:08.693Z,98756.31
2022-11-07T22:11:35.906Z,98757.50
2022-11-07T22:14:03.223Z,98758.88
2022-11-07T22:16:30.173Z,98766.22
2022-11-07T22:19:00.132Z,98757.09
2022-11-07T22:21:27.509Z,98767.59
2022-11-07T22:23:59.198Z,98750.31
2022-11-07T22:26:28.208Z,98758.53
2022-11-07T22:28:55.336Z,98751.25
2022-11-07T22:31:25.629Z,98754.88
2022-11-07T22:33:54.030Z,98754.88
2022-11-07T22:36:21.544Z,98751.06
2022-11-07T22:38:51.666Z,98748.34
2022-11-07T22:41:24.823Z,98750.47
2022-11-07T22:43:52.346Z,98750.47
2022-11-07T22:46:24.778Z,98746.16
2022-11-07T22:48:53.225Z,98740.22
2022-11-07T22:51:32.889Z,98740.50
2022-11-07T22:54:12.671Z,98742.44
2022-11-07T22:56:40.411Z,98742.44
2022-11-07T22:59:07.729Z,98735.47
2022-11-07T23:01:41.903Z,98733.44
2022-11-07T23:04:15.376Z,98731.53
2022-11-07T23:06:42.224Z,98738.03
2022-11-07T23:09:13.445Z,98733.44
2022-11-07T23:11:49.022Z,98726.63
2022-11-07T23:14:20.610Z,98724.00
2022-11-07T23:16:51.651Z,98725.41
2022-11-07T23:19:22.761Z,98726.50
2022-11-07T23:21:52.181Z,98723.03
2022-11-07T23:24:20.495Z,98717.44
2022-11-07T23:26:47.979Z,98720.22
2022-11-07T23:29:21.138Z,98721.00
2022-11-07T23:31:49.698Z,98718.03
2022-11-07T23:34:18.543Z,98712.09
2022-11-07T23:36:45.464Z,98718.59
2022-11-07T23:39:17.303Z,98717.00
2022-11-07T23:41:45.298Z,98718.28
2022-11-07T23:44:13.559Z,98724.81
2022-11-07T23:46:59.846Z,98727.75
2022-11-07T23:49:55.570Z,98726.50
2022-11-07T23:52:22.350Z,98722.75
2022-11-07T23:55:07.743Z,98717.13
2022-11-07T23:57:56.682Z,98712.28
